x

North Channel East (45154) Wave Buoy

7:00am - Thu 24th Jul 2014 All times are CDT. -5 hours from GMT.

  • Sig Wave height 1.0ft
  • Peak Period 2s
  • Wind
    11mph, 13mph gusts
  • Sea Temp 64°f
  • Air Temp 60°f
  • Sea Pressure 1019.8mb
  • North Channel East
  • North Channel East

More Historic Weather Station data

Upgrade to MSW Pro to gain access to the past 30 days of data for over 8000 Wavebouys and Weather Stations around the globe.

Join Pro

Comparision Forecast

View Surf forecast
   
Thu 07/24 7:00am 1ft 2s 11 13 mph 1019.8mb 64f 60f
6:00am 1ft 3s 9
mph
1019.5mb 64f 61f
5:00am 1ft 4s 7 9 mph 1019.5mb 64f 61f
4:00am 1ft 4s 9 11 mph 1019.5mb 64f 60f
3:00am 1.3ft 4s 11 13 mph 1019.2mb 64f 61f
2:00am 1.3ft 3s 13
mph
1019.3mb 64f 62f
1:00am 1.3ft 2s 13 16 mph 1019.2mb 64f 62f
12:00am 1ft 2s 13 16 mph 1019.3mb 64f 63f
Wed 07/23 11:00pm 0.7ft 2s 11 16 mph 1019.3mb 64f 64f
10:00pm 0.7ft 2s 9 11 mph 1019.2mb 64f 65f
9:00pm 0.7ft 2s 11
mph
1019mb 64f 65f
8:00pm 0.7ft 2s 4 7 mph 1018.5mb 64f 65f
7:00pm 1ft 2s 7 9 mph 1018.4mb 64f 66f
6:00pm 1.3ft 2s 11 13 mph 1018.3mb 64f 67f
5:00pm 1ft 2s 18 20 mph 1018.1mb 64f 67f
4:00pm 1ft 2s 11 13 mph 1018.3mb 64f 67f
3:00pm 1.3ft 2s 13 18 mph 1018.6mb 64f 67f
2:00pm 1.3ft 2s 13 18 mph 1018.7mb 64f 67f
1:00pm 1ft 2s 11 16 mph 1018.5mb 64f 67f
12:00pm 1ft 2s 11 16 mph 1018.1mb 64f 66f
11:00am 1ft 2s 9 16 mph 1018.4mb 64f 64f
10:00am 1.3ft 2s 11 13 mph 1018.6mb 64f 61f
9:00am 1.6ft 3s 11 18 mph 1018.6mb 64f 60f
8:00am 1.6ft 4s 13 16 mph 1018.6mb 64f 60f
7:00am 2ft 4s 16 20 mph 1018.2mb 64f 60f
6:00am 2ft 5s 13 18 mph 1017.2mb 64f 60f
5:00am 2ft 5s 16 20 mph 1015.9mb 64f 61f
4:00am 2ft 5s 16 20 mph 1014.3mb 64f 61f
3:00am 2.5ft 4s 16 20 mph 1013.6mb 64f 62f
2:00am 2.5ft 5s 18 22 mph 1013.4mb 64f 63f
12:00am 3ft 4s 13 16 mph 1012.2mb 64f 63f
Tue 07/22 11:00pm 3ft 4s 20 22 mph 1011.2mb 64f 63f
10:00pm 2.5ft 4s 20 25 mph 1011.2mb 65f 64f
9:00pm 1.6ft 3s 20 25 mph 1010.8mb 65f 66f
8:00pm 1.3ft 2s 13 16 mph 1009.8mb 66f 67f
7:00pm 0.7ft 2s 13 18 mph 1009.5mb 66f 68f
6:00pm 1ft 3s 9 11 mph 1009.3mb 66f 69f
5:00pm 1.6ft 3s 13
mph
1009.2mb 66f 68f
3:00pm 3ft 3s 16 20 mph 1009.7mb 66f 70f
2:00pm 2.5ft 3s 20 25 mph 1009.6mb 66f 71f
1:00pm 2ft 3s 20 25 mph 1010.7mb 66f 71f
12:00pm 1ft 2s 16 18 mph 1011.6mb 66f 72f
11:00am 0.7ft 2s 9 13 mph 1012.5mb 66f 71f
10:00am 0.7ft 2s 9
mph
1014.6mb 66f 70f
9:00am 1ft 2s 9 11 mph 1015.2mb 66f 70f
8:00am 1ft 2s 7 9 mph 1016.1mb 66f 68f
7:00am 0.7ft 2s 11 13 mph 1016.3mb 66f 67f
6:00am  -  2s 9
mph
1016.7mb 66f 67f
5:00am 0.3ft 2s 7 9 mph 1016.2mb 65f 66f
4:00am 0.3ft 2s 4
mph
1016.7mb 65f 66f
3:00am 0.3ft 2s 7
mph
1016.6mb 65f 66f
2:00am 0.7ft 2s 4 7 mph 1016.7mb 65f 66f
1:00am 0.7ft 2s 2 4 mph 1017mb 65f 66f
12:00am 0.7ft 2s 4 9 mph 1017.1mb 66f 67f
Mon 07/21 11:00pm 0.7ft 2s 9 11 mph 1017.2mb 66f 67f
10:00pm 0.7ft 2s 9 11 mph 1017.4mb 66f 68f
9:00pm 0.7ft 2s 9 11 mph 1017.9mb 66f 68f
8:00pm 0.7ft 2s 7
mph
1017.5mb 66f 68f
7:00pm 0.7ft 2s 4 7 mph 1017.4mb 67f 69f
6:00pm 0.7ft 2s 7 9 mph 1017.5mb 67f 70f
5:00pm 0.7ft 2s 9 11 mph 1017.7mb 67f 70f
4:00pm 1ft 2s 9
mph
1017.5mb 67f 72f
3:00pm 0.7ft 2s 13
mph
1017.7mb 67f 72f
2:00pm 0.7ft 2s 4 7 mph 1018mb 67f 71f
1:00pm 0.7ft 2s 7 9 mph 1018.3mb 67f 71f
12:00pm 0.7ft 2s 7
mph
1018.5mb 67f 70f
11:00am 0.7ft 2s 2 4 mph 1018.4mb 66f 71f
10:00am 0.7ft 2s 2 4 mph 1018.5mb 65f 68f
9:00am 1ft 2s 4
mph
1018.2mb 65f 67f
8:00am 1.3ft 2s 9 11 mph 1017.5mb 65f 66f
7:00am 0.7ft 2s 9 11 mph 1017.6mb 65f 65f
6:00am 0.7ft 2s 9
mph
1017.7mb 65f 65f
5:00am 0.7ft 2s 4 7 mph 1018.2mb 65f 64f
4:00am 1ft 2s 2 4 mph 1018.1mb 65f 64f
3:00am 1ft 2s 11 16 mph 1017mb 65f 64f
2:00am 0.7ft 2s 4 7 mph 1017.1mb 65f 64f
1:00am 0.3ft 2s 4 7 mph 1017.4mb 65f 65f
12:00am 0.3ft 2s 7
mph
1017.4mb 65f 65f
Sun 07/20 11:00pm 0.7ft 2s 4
mph
1017.4mb 65f 65f
10:00pm 0.7ft 2s 7 9 mph 1017.5mb 66f 64f
9:00pm 0.7ft 2s 9 11 mph 1017.3mb 66f 65f
8:00pm 0.7ft 2s 9 11 mph 1017mb 66f 65f
7:00pm 0.7ft 2s 11 13 mph 1016.9mb 66f 66f
6:00pm 0.7ft 2s 9
mph
1017mb 66f 68f
5:00pm 0.7ft 2s 11 13 mph 1016.8mb 67f 69f
4:00pm 0.7ft 2s 9 11 mph 1017mb 67f 69f
3:00pm 0.7ft 2s 9 11 mph 1017.1mb 67f 69f
2:00pm 0.3ft 4s 9
mph
1017.4mb 69f 70f